createdAt,value
2022-09-27T00:01:11.645Z,99423.94
2022-09-27T00:03:39.974Z,99426.59
2022-09-27T00:06:10.317Z,99407.75
2022-09-27T00:08:38.941Z,99411.84
2022-09-27T00:11:13.648Z,99398.59
2022-09-27T00:13:41.716Z,99403.84
2022-09-27T00:16:11.010Z,99401.56
2022-09-27T00:18:39.011Z,99398.81
2022-09-27T00:21:09.084Z,99391.69
2022-09-27T00:23:37.240Z,99386.38
2022-09-27T00:26:06.111Z,99392.09
2022-09-27T00:28:36.157Z,99392.09
2022-09-27T00:31:04.278Z,99391.44
2022-09-27T00:33:32.404Z,99384.53
2022-09-27T00:36:05.839Z,99385.38
2022-09-27T00:38:33.835Z,99384.41
2022-09-27T00:41:02.111Z,99378.31
2022-09-27T00:43:47.588Z,99382.16
2022-09-27T00:46:20.179Z,99377.38
2022-09-27T00:48:49.560Z,99372.38
2022-09-27T00:51:17.810Z,99364.84
2022-09-27T00:53:52.775Z,99363.69
2022-09-27T00:56:27.708Z,99362.75
2022-09-27T00:59:00.922Z,99356.44
2022-09-27T01:01:30.547Z,99357.28
2022-09-27T01:04:04.816Z,99353.16
2022-09-27T01:06:32.941Z,99351.66
2022-09-27T01:09:00.920Z,99341.16
2022-09-27T01:11:39.704Z,99343.84
2022-09-27T01:14:42.430Z,99333.56
2022-09-27T01:17:27.261Z,99331.72
2022-09-27T01:20:41.244Z,99329.09
2022-09-27T01:23:30.819Z,99325.34
2022-09-27T01:26:14.427Z,99316.72
2022-09-27T01:29:05.629Z,99318.03
2022-09-27T01:31:42.389Z,99320.47
2022-09-27T01:34:19.150Z,99326.09
2022-09-27T01:36:55.773Z,99320.38
2022-09-27T01:39:35.058Z,99316.84
2022-09-27T01:42:38.203Z,99310.50
2022-09-27T01:45:11.819Z,99305.91
2022-09-27T01:47:54.102Z,99302.59
2022-09-27T01:50:44.481Z,99299.69
2022-09-27T01:53:19.133Z,99298.00
2022-09-27T01:56:28.162Z,99289.84
2022-09-27T01:59:08.717Z,99278.59
2022-09-27T02:01:41.471Z,99284.28
2022-09-27T02:04:14.912Z,99273.59
2022-09-27T02:07:06.825Z,99269.22
2022-09-27T02:09:40.389Z,99261.38
2022-09-27T02:12:22.822Z,99267.44
2022-09-27T02:14:56.690Z,99251.78
2022-09-27T02:17:36.180Z,99258.09
2022-09-27T02:20:12.613Z,99239.66
2022-09-27T02:22:52.323Z,99246.22
2022-09-27T02:25:25.519Z,99236.97
2022-09-27T02:28:02.199Z,99234.06
2022-09-27T02:30:35.520Z,99240.91
2022-09-27T02:33:17.188Z,99234.25
2022-09-27T02:35:47.139Z,99225.34
2022-09-27T02:38:15.400Z,99226.09
2022-09-27T02:40:46.905Z,99218.84
2022-09-27T02:43:17.828Z,99217.66
2022-09-27T02:45:58.287Z,99217.25
2022-09-27T02:48:32.877Z,99215.88
2022-09-27T02:51:25.167Z,99212.34
2022-09-27T02:54:06.663Z,99211.69
2022-09-27T02:57:04.300Z,99213.00
2022-09-27T03:00:01.278Z,99211.69
2022-09-27T03:02:52.329Z,99207.72
2022-09-27T03:05:40.979Z,99206.97
2022-09-27T03:08:12.471Z,99209.09
2022-09-27T03:10:41.080Z,99206.41
2022-09-27T03:13:09.476Z,99204.66
2022-09-27T03:15:38.004Z,99194.91
2022-09-27T03:18:06.346Z,99199.34
2022-09-27T03:20:42.984Z,99192.38
2022-09-27T03:23:18.937Z,99183.47
2022-09-27T03:25:47.225Z,99195.47
2022-09-27T03:28:15.529Z,99187.00
2022-09-27T03:30:46.410Z,99182.44
2022-09-27T03:33:22.559Z,99170.03
2022-09-27T03:35:59.995Z,99175.69
2022-09-27T03:38:29.529Z,99180.97
2022-09-27T03:40:57.844Z,99179.03
2022-09-27T03:43:26.397Z,99178.66
2022-09-27T03:45:58.944Z,99176.50
2022-09-27T03:48:28.279Z,99186.19
2022-09-27T03:50:56.439Z,99175.47
2022-09-27T03:53:24.715Z,99181.44
2022-09-27T03:55:54.564Z,99181.03
2022-09-27T03:58:22.632Z,99171.16
2022-09-27T04:00:50.645Z,99173.91
2022-09-27T04:03:19.895Z,99171.53
2022-09-27T04:06:08.514Z,99166.16
2022-09-27T04:08:40.566Z,99173.47
2022-09-27T04:11:10.044Z,99166.41
2022-09-27T04:13:40.380Z,99170.06
2022-09-27T04:16:09.587Z,99161.22
2022-09-27T04:19:07.362Z,99164.44
2022-09-27T04:21:38.059Z,99159.94
2022-09-27T04:24:07.307Z,99158.88
2022-09-27T04:26:37.709Z,99155.88
2022-09-27T04:29:14.508Z,99163.28
2022-09-27T04:31:49.318Z,99149.19
2022-09-27T04:34:46.075Z,99164.31
2022-09-27T04:37:16.176Z,99165.78
2022-09-27T04:39:50.210Z,99167.16
2022-09-27T04:42:19.897Z,99170.75
2022-09-27T04:44:48.876Z,99167.53
2022-09-27T04:47:17.409Z,99172.50
2022-09-27T04:49:45.506Z,99165.94
2022-09-27T04:52:15.481Z,99164.66
2022-09-27T04:54:43.577Z,99168.84
2022-09-27T04:57:14.563Z,99165.50
2022-09-27T04:59:45.045Z,99175.13
2022-09-27T05:02:14.363Z,99171.53
2022-09-27T05:05:02.764Z,99158.59
2022-09-27T05:07:36.785Z,99165.63
2022-09-27T05:10:10.903Z,99166.56
2022-09-27T05:12:38.881Z,99169.56
2022-09-27T05:15:10.390Z,99171.00
2022-09-27T05:17:58.237Z,99165.25
2022-09-27T05:20:45.114Z,99169.69
2022-09-27T05:23:24.265Z,99170.41
2022-09-27T05:25:53.488Z,99170.94
2022-09-27T05:28:21.467Z,99167.75
2022-09-27T05:30:51.399Z,99178.66
2022-09-27T05:33:22.095Z,99175.06
2022-09-27T05:35:53.996Z,99164.88
2022-09-27T05:38:25.636Z,99163.09
2022-09-27T05:40:56.958Z,99168.59
2022-09-27T05:43:26.242Z,99169.81
2022-09-27T05:45:56.407Z,99173.63
2022-09-27T05:48:24.795Z,99174.13
2022-09-27T05:50:57.493Z,99163.81
2022-09-27T05:53:25.536Z,99164.91
2022-09-27T05:55:54.706Z,99167.41
2022-09-27T05:58:30.422Z,99175.53
2022-09-27T06:01:15.356Z,99173.38
2022-09-27T06:04:02.248Z,99168.00
2022-09-27T06:06:49.988Z,99168.16
2022-09-27T06:09:18.742Z,99165.38
2022-09-27T06:11:48.967Z,99158.44
2022-09-27T06:14:18.395Z,99167.75
2022-09-27T06:17:13.503Z,99163.81
2022-09-27T06:19:45.217Z,99159.44
2022-09-27T06:22:13.811Z,99161.69
2022-09-27T06:24:58.349Z,99160.09
2022-09-27T06:27:29.259Z,99159.25
2022-09-27T06:30:10.029Z,99155.56
2022-09-27T06:32:49.248Z,99163.72
2022-09-27T06:35:25.554Z,99163.81
2022-09-27T06:37:54.109Z,99166.41
2022-09-27T06:40:24.755Z,99166.47
2022-09-27T06:43:03.397Z,99168.13
2022-09-27T06:45:50.421Z,99173.63
2022-09-27T06:48:42.775Z,99165.47
2022-09-27T06:51:18.220Z,99165.75
2022-09-27T06:53:46.192Z,99161.50
2022-09-27T06:56:14.999Z,99163.00
2022-09-27T06:59:06.386Z,99160.38
2022-09-27T07:01:43.875Z,99169.63
2022-09-27T07:04:42.498Z,99173.97
2022-09-27T07:07:30.742Z,99179.84
2022-09-27T07:09:59.463Z,99171.72
2022-09-27T07:12:28.996Z,99174.81
2022-09-27T07:14:57.027Z,99171.00
2022-09-27T07:17:25.012Z,99170.44
2022-09-27T07:19:55.492Z,99174.94
2022-09-27T07:22:24.045Z,99172.94
2022-09-27T07:24:59.480Z,99173.69
2022-09-27T07:27:27.462Z,99173.19
2022-09-27T07:29:56.299Z,99171.44
2022-09-27T07:32:25.837Z,99174.22
2022-09-27T07:34:55.998Z,99173.84
2022-09-27T07:37:24.396Z,99179.91
2022-09-27T07:39:55.199Z,99178.66
2022-09-27T07:42:23.328Z,99174.88
2022-09-27T07:44:54.271Z,99178.34
2022-09-27T07:47:25.559Z,99161.34
2022-09-27T07:50:24.191Z,99174.44
2022-09-27T07:53:04.883Z,99173.00
2022-09-27T07:55:53.055Z,99166.56
2022-09-27T07:58:24.425Z,99175.16
2022-09-27T08:00:56.266Z,99168.97
2022-09-27T08:03:24.324Z,99169.00
2022-09-27T08:05:53.777Z,99176.88
2022-09-27T08:08:21.843Z,99179.91
2022-09-27T08:10:51.819Z,99180.78
2022-09-27T08:13:21.035Z,99180.31
2022-09-27T08:15:52.588Z,99181.41
2022-09-27T08:18:22.081Z,99182.72
2022-09-27T08:21:11.795Z,99183.69
2022-09-27T08:24:00.536Z,99184.44
2022-09-27T08:26:54.095Z,99186.72
2022-09-27T08:29:31.950Z,99179.72
2022-09-27T08:31:59.969Z,99183.44
2022-09-27T08:34:28.358Z,99185.84
2022-09-27T08:36:57.864Z,99187.56
2022-09-27T08:39:26.108Z,99189.22
2022-09-27T08:42:03.024Z,99181.22
2022-09-27T08:44:38.995Z,99187.84
2022-09-27T08:47:19.503Z,99184.50
2022-09-27T08:49:53.709Z,99186.28
2022-09-27T08:52:28.925Z,99196.31
2022-09-27T08:55:03.612Z,99197.00
2022-09-27T08:57:31.790Z,99195.34
2022-09-27T09:00:06.243Z,99190.69
2022-09-27T09:02:36.108Z,99194.53
2022-09-27T09:05:09.474Z,99188.25
2022-09-27T09:07:56.745Z,99185.44
2022-09-27T09:10:58.102Z,99190.56
2022-09-27T09:13:41.715Z,99198.44
2022-09-27T09:16:15.817Z,99185.72
2022-09-27T09:19:06.971Z,99181.56
2022-09-27T09:21:51.051Z,99177.19
2022-09-27T09:24:35.621Z,99188.88
2022-09-27T09:27:08.987Z,99180.13
2022-09-27T09:29:51.023Z,99180.63
2022-09-27T09:32:29.675Z,99165.84
2022-09-27T09:35:02.934Z,99178.63
2022-09-27T09:37:38.797Z,99169.94
2022-09-27T09:40:18.948Z,99178.84
2022-09-27T09:42:53.985Z,99175.31
2022-09-27T09:45:23.919Z,99175.56
2022-09-27T09:47:58.745Z,99181.16
2022-09-27T09:50:31.267Z,99179.13
2022-09-27T09:53:04.194Z,99176.72
2022-09-27T09:55:37.524Z,99176.91
2022-09-27T09:58:20.044Z,99170.44
2022-09-27T10:00:54.865Z,99174.22
2022-09-27T10:03:24.433Z,99168.25
2022-09-27T10:05:52.992Z,99164.53
2022-09-27T10:08:22.869Z,99166.78
2022-09-27T10:11:01.972Z,99165.84
2022-09-27T10:13:53.126Z,99161.66
2022-09-27T10:16:22.623Z,99157.97
2022-09-27T10:18:56.602Z,99145.53
2022-09-27T10:21:30.106Z,99148.50
2022-09-27T10:24:11.232Z,99155.75
2022-09-27T10:27:12.404Z,99149.72
2022-09-27T10:29:41.517Z,99152.44
2022-09-27T10:32:27.290Z,99155.53
2022-09-27T10:35:36.847Z,99151.81
2022-09-27T10:38:21.654Z,99142.88
2022-09-27T10:40:51.720Z,99153.28
2022-09-27T10:43:30.738Z,99146.88
2022-09-27T10:46:23.004Z,99147.88
2022-09-27T10:49:12.886Z,99133.34
2022-09-27T10:51:41.704Z,99144.47
2022-09-27T10:54:22.261Z,99143.25
2022-09-27T10:57:04.277Z,99140.63
2022-09-27T10:59:37.341Z,99137.84
2022-09-27T11:02:07.044Z,99146.38
2022-09-27T11:05:05.400Z,99140.84
2022-09-27T11:07:38.254Z,99148.41
2022-09-27T11:10:28.680Z,99145.53
2022-09-27T11:13:14.396Z,99147.19
2022-09-27T11:16:06.175Z,99145.72
2022-09-27T11:18:45.224Z,99149.72
2022-09-27T11:21:24.687Z,99141.88
2022-09-27T11:24:10.940Z,99149.31
2022-09-27T11:26:52.493Z,99147.28
2022-09-27T11:29:30.663Z,99150.72
2022-09-27T11:32:47.650Z,99153.00
2022-09-27T11:35:34.480Z,99160.91
2022-09-27T11:38:24.803Z,99156.38
2022-09-27T11:41:23.588Z,99162.25
2022-09-27T11:44:17.874Z,99200.19
2022-09-27T11:46:53.972Z,99199.97
2022-09-27T11:49:53.994Z,99210.97
2022-09-27T11:52:38.383Z,99208.91
2022-09-27T11:55:23.221Z,99202.06
2022-09-27T11:58:01.871Z,99203.94
2022-09-27T12:00:46.413Z,99203.59
2022-09-27T12:03:53.347Z,99204.94
2022-09-27T12:06:38.251Z,99212.69
2022-09-27T12:09:10.333Z,99219.00
2022-09-27T12:11:42.245Z,99217.44
2022-09-27T12:14:21.627Z,99218.78
2022-09-27T12:16:55.867Z,99216.53
2022-09-27T12:19:28.412Z,99221.06
2022-09-27T12:22:15.253Z,99223.00
2022-09-27T12:24:49.994Z,99223.19
2022-09-27T12:27:59.113Z,99216.09
2022-09-27T12:30:28.079Z,99225.63
2022-09-27T12:33:07.056Z,99210.25
2022-09-27T12:35:42.811Z,99215.41
2022-09-27T12:38:15.820Z,99212.84
2022-09-27T12:40:46.323Z,99215.22
2022-09-27T12:43:20.578Z,99212.41
2022-09-27T12:46:16.096Z,99209.81
2022-09-27T12:48:55.405Z,99209.53
2022-09-27T12:51:25.829Z,99208.34
2022-09-27T12:54:25.952Z,99201.88
2022-09-27T12:57:02.026Z,99218.09
2022-09-27T12:59:52.545Z,99211.78
2022-09-27T13:03:14.163Z,99209.00
2022-09-27T13:05:56.163Z,99211.91
2022-09-27T13:08:38.814Z,99216.31
2022-09-27T13:11:20.302Z,99214.81
2022-09-27T13:13:48.846Z,99216.13
2022-09-27T13:16:17.697Z,99226.47
2022-09-27T13:19:01.422Z,99224.69
2022-09-27T13:21:59.676Z,99221.56
2022-09-27T13:24:55.594Z,99229.63
2022-09-27T13:27:44.657Z,99231.63
2022-09-27T13:30:49.420Z,99228.97
2022-09-27T13:33:44.492Z,99228.22
2022-09-27T13:36:28.089Z,99228.88
2022-09-27T13:39:23.630Z,99232.75
2022-09-27T13:42:30.482Z,99242.59
2022-09-27T13:45:20.170Z,99238.59
2022-09-27T13:47:50.724Z,99237.69
2022-09-27T13:50:40.817Z,99234.72
2022-09-27T13:53:25.462Z,99228.69
2022-09-27T13:55:53.867Z,99236.22
2022-09-27T13:58:43.575Z,99242.44
2022-09-27T14:01:37.938Z,99238.34
2022-09-27T14:04:15.746Z,99247.28
2022-09-27T14:06:48.039Z,99246.41
2022-09-27T14:09:21.475Z,99249.91
2022-09-27T14:12:01.290Z,99247.13
2022-09-27T14:14:34.776Z,99251.69
2022-09-27T14:17:10.139Z,99257.91
2022-09-27T14:19:42.128Z,99259.38
2022-09-27T14:22:15.186Z,99263.09
2022-09-27T14:25:18.795Z,99268.34
2022-09-27T14:27:50.523Z,99257.00
2022-09-27T14:30:27.857Z,99266.31
2022-09-27T14:33:30.122Z,99275.00
2022-09-27T14:36:23.714Z,99273.50
2022-09-27T14:38:58.601Z,99274.13
2022-09-27T14:41:38.030Z,99275.06
2022-09-27T14:44:05.988Z,99266.34
2022-09-27T14:46:34.003Z,99273.66
2022-09-27T14:49:19.473Z,99272.59
2022-09-27T14:51:53.106Z,99292.66
2022-09-27T14:54:25.213Z,99285.63
2022-09-27T14:56:54.673Z,99289.38
2022-09-27T14:59:30.694Z,99301.53
2022-09-27T15:02:01.787Z,99301.69
2022-09-27T15:04:33.107Z,99302.19
2022-09-27T15:07:03.329Z,99314.56
2022-09-27T15:09:33.287Z,99311.63
2022-09-27T15:12:05.025Z,99304.22
2022-09-27T15:14:34.263Z,99317.00
2022-09-27T15:17:05.878Z,99307.16
2022-09-27T15:19:35.464Z,99320.81
2022-09-27T15:22:32.849Z,99314.84
2022-09-27T15:25:19.378Z,99316.41
2022-09-27T15:27:51.093Z,99324.66
2022-09-27T15:30:21.512Z,99315.81
2022-09-27T15:32:56.053Z,99327.63
2022-09-27T15:35:34.021Z,99324.91
2022-09-27T15:38:27.002Z,99324.41
2022-09-27T15:41:10.085Z,99324.53
2022-09-27T15:43:41.284Z,99326.84
2022-09-27T15:46:34.046Z,99324.53
2022-09-27T15:49:30.912Z,99337.78
2022-09-27T15:52:01.782Z,99343.31
2022-09-27T15:54:33.241Z,99344.13
2022-09-27T15:57:04.524Z,99349.25
2022-09-27T15:59:35.017Z,99349.38
2022-09-27T16:02:08.200Z,99360.59
2022-09-27T16:04:36.217Z,99353.50
2022-09-27T16:07:08.952Z,99346.13
2022-09-27T16:09:36.876Z,99349.13
2022-09-27T16:12:04.882Z,99358.03
2022-09-27T16:14:32.726Z,99346.09
2022-09-27T16:17:00.585Z,99342.03
2022-09-27T16:19:28.399Z,99339.94
2022-09-27T16:21:56.214Z,99349.19
2022-09-27T16:24:27.902Z,99354.50
2022-09-27T16:26:55.731Z,99352.44
2022-09-27T16:29:23.555Z,99359.31
2022-09-27T16:31:53.558Z,99367.72
2022-09-27T16:34:21.631Z,99370.63
2022-09-27T16:36:51.056Z,99381.00
2022-09-27T16:39:18.881Z,99379.69
2022-09-27T16:41:48.274Z,99378.97
2022-09-27T16:44:17.443Z,99378.97
2022-09-27T16:46:46.248Z,99382.00
2022-09-27T16:49:28.114Z,99385.91
2022-09-27T16:52:01.576Z,99383.38
2022-09-27T16:54:30.423Z,99386.53
2022-09-27T16:57:00.556Z,99392.09
2022-09-27T16:59:28.974Z,99394.31
2022-09-27T17:01:58.069Z,99391.75
2022-09-27T17:04:27.389Z,99384.22
2022-09-27T17:06:55.291Z,99384.56
2022-09-27T17:09:23.633Z,99386.41
2022-09-27T17:11:52.066Z,99391.13
2022-09-27T17:14:21.612Z,99396.34
2022-09-27T17:16:50.502Z,99397.84
2022-09-27T17:19:19.276Z,99405.06
2022-09-27T17:21:47.587Z,99390.81
2022-09-27T17:24:15.732Z,99402.22
2022-09-27T17:26:44.098Z,99408.94
2022-09-27T17:29:12.380Z,99414.13
2022-09-27T17:31:42.838Z,99407.56
2022-09-27T17:34:13.013Z,99415.13
2022-09-27T17:36:43.092Z,99413.78
2022-09-27T17:39:13.308Z,99412.63
2022-09-27T17:41:41.153Z,99415.78
2022-09-27T17:44:11.226Z,99417.47
2022-09-27T17:46:39.265Z,99417.00
2022-09-27T17:49:26.478Z,99415.31
2022-09-27T17:51:55.174Z,99416.81
2022-09-27T17:54:27.738Z,99427.06
2022-09-27T17:56:56.321Z,99418.31
2022-09-27T17:59:24.171Z,99423.69
2022-09-27T18:01:52.153Z,99427.38
2022-09-27T18:04:21.429Z,99428.06
2022-09-27T18:06:49.325Z,99422.34
2022-09-27T18:09:19.661Z,99430.91
2022-09-27T18:11:48.203Z,99435.44
2022-09-27T18:14:16.313Z,99442.31
2022-09-27T18:16:44.928Z,99432.75
2022-09-27T18:19:15.187Z,99434.78
2022-09-27T18:21:44.740Z,99433.59
2022-09-27T18:24:14.115Z,99434.78
2022-09-27T18:26:42.206Z,99440.47
2022-09-27T18:29:13.260Z,99438.81
2022-09-27T18:31:47.426Z,99446.84
2022-09-27T18:34:17.219Z,99451.19
2022-09-27T18:36:47.569Z,99451.88
2022-09-27T18:39:19.034Z,99459.91
2022-09-27T18:41:48.617Z,99452.38
2022-09-27T18:44:18.087Z,99456.22
2022-09-27T18:46:46.806Z,99451.16
2022-09-27T18:49:15.816Z,99459.75
2022-09-27T18:51:47.094Z,99461.06
2022-09-27T18:54:18.272Z,99458.16
2022-09-27T18:56:47.089Z,99457.16
2022-09-27T18:59:16.498Z,99462.22
2022-09-27T19:01:45.760Z,99469.31
2022-09-27T19:04:19.196Z,99463.41
2022-09-27T19:06:51.489Z,99465.09
2022-09-27T19:09:19.400Z,99474.22
2022-09-27T19:11:47.350Z,99474.91
2022-09-27T19:14:17.344Z,99472.25
2022-09-27T19:16:46.983Z,99473.56
2022-09-27T19:19:15.275Z,99470.56
2022-09-27T19:21:43.556Z,99473.53
2022-09-27T19:24:13.952Z,99466.19
2022-09-27T19:26:42.097Z,99484.72
2022-09-27T19:29:09.980Z,99477.22
2022-09-27T19:31:37.885Z,99477.59
2022-09-27T19:34:05.848Z,99481.28
2022-09-27T19:36:33.638Z,99475.56
2022-09-27T19:39:02.357Z,99476.75
2022-09-27T19:41:31.621Z,99475.09
2022-09-27T19:43:59.461Z,99481.69
2022-09-27T19:46:27.751Z,99473.25
2022-09-27T19:48:56.300Z,99485.13
2022-09-27T19:51:26.420Z,99483.31
2022-09-27T19:53:54.958Z,99474.78
2022-09-27T19:56:23.914Z,99474.44
2022-09-27T19:58:53.364Z,99476.63
2022-09-27T20:01:23.226Z,99479.47
2022-09-27T20:03:53.169Z,99477.97
2022-09-27T20:06:22.236Z,99472.75
2022-09-27T20:08:50.372Z,99472.94
2022-09-27T20:11:19.608Z,99474.72
2022-09-27T20:13:48.069Z,99472.06
2022-09-27T20:16:19.632Z,99477.31
2022-09-27T20:18:49.437Z,99479.38
2022-09-27T20:21:18.667Z,99482.06
2022-09-27T20:23:49.670Z,99475.41
2022-09-27T20:26:19.613Z,99469.09
2022-09-27T20:28:49.601Z,99472.69
2022-09-27T20:31:20.623Z,99470.34
2022-09-27T20:33:50.697Z,99474.88
2022-09-27T20:36:20.310Z,99470.19
2022-09-27T20:38:50.040Z,99469.91
2022-09-27T20:41:20.186Z,99476.91
2022-09-27T20:43:49.364Z,99478.34
2022-09-27T20:46:20.103Z,99478.34
2022-09-27T20:48:52.231Z,99483.03
2022-09-27T20:51:20.721Z,99477.38
2022-09-27T20:53:51.191Z,99481.03
2022-09-27T20:56:21.194Z,99481.06
2022-09-27T20:58:49.855Z,99486.56
2022-09-27T21:01:19.817Z,99479.06
2022-09-27T21:03:47.744Z,99469.16
2022-09-27T21:06:16.221Z,99484.13
2022-09-27T21:08:44.141Z,99483.91
2022-09-27T21:11:14.903Z,99485.09
2022-09-27T21:13:44.027Z,99480.88
2022-09-27T21:16:14.581Z,99478.53
2022-09-27T21:18:44.559Z,99485.69
2022-09-27T21:21:14.059Z,99482.34
2022-09-27T21:23:44.715Z,99487.75
2022-09-27T21:26:14.956Z,99482.41
2022-09-27T21:28:44.558Z,99486.38
2022-09-27T21:31:20.123Z,99494.16
2022-09-27T21:33:54.620Z,99492.44
2022-09-27T21:36:23.394Z,99489.69
2022-09-27T21:38:51.970Z,99491.78
2022-09-27T21:41:20.226Z,99494.72
2022-09-27T21:43:50.255Z,99498.69
2022-09-27T21:46:20.362Z,99494.53
2022-09-27T21:48:49.707Z,99502.72
2022-09-27T21:51:23.387Z,99501.88
2022-09-27T21:53:53.383Z,99510.81
2022-09-27T21:56:23.248Z,99503.16
2022-09-27T21:58:51.360Z,99496.78
2022-09-27T22:01:22.200Z,99498.81
2022-09-27T22:03:51.447Z,99485.28
2022-09-27T22:06:22.595Z,99497.00
2022-09-27T22:08:51.618Z,99495.53
2022-09-27T22:11:21.781Z,99499.34
2022-09-27T22:13:50.195Z,99499.28
2022-09-27T22:16:20.161Z,99498.06
2022-09-27T22:18:49.460Z,99504.75
2022-09-27T22:21:21.662Z,99505.72
2022-09-27T22:23:53.881Z,99507.03
2022-09-27T22:26:23.466Z,99510.50
2022-09-27T22:28:52.013Z,99502.84
2022-09-27T22:31:20.940Z,99509.19
2022-09-27T22:33:49.819Z,99506.00
2022-09-27T22:36:18.305Z,99503.66
2022-09-27T22:38:47.794Z,99504.44
2022-09-27T22:41:16.080Z,99497.81
2022-09-27T22:43:44.736Z,99494.94
2022-09-27T22:46:13.123Z,99499.78
2022-09-27T22:48:41.478Z,99496.06
2022-09-27T22:51:09.999Z,99496.41
2022-09-27T22:53:38.245Z,99494.31
2022-09-27T22:56:09.404Z,99501.16
2022-09-27T22:58:38.156Z,99498.81
2022-09-27T23:01:10.287Z,99499.16
2022-09-27T23:03:38.185Z,99491.88
2022-09-27T23:06:07.812Z,99494.78
2022-09-27T23:08:36.744Z,99489.19
2022-09-27T23:11:08.705Z,99491.59
2022-09-27T23:13:38.603Z,99499.25
2022-09-27T23:16:08.934Z,99503.63
2022-09-27T23:18:37.258Z,99503.47
2022-09-27T23:21:08.276Z,99498.78
2022-09-27T23:23:37.438Z,99498.84
2022-09-27T23:26:08.672Z,99493.69
2022-09-27T23:28:36.702Z,99494.72
2022-09-27T23:31:08.054Z,99493.69
2022-09-27T23:33:36.497Z,99488.13
2022-09-27T23:36:04.440Z,99486.66
2022-09-27T23:38:33.263Z,99494.00
2022-09-27T23:41:01.852Z,99489.06
2022-09-27T23:43:31.266Z,99492.75
2022-09-27T23:45:59.268Z,99492.31
2022-09-27T23:48:27.754Z,99492.91
2022-09-27T23:50:56.741Z,99493.44
2022-09-27T23:53:25.524Z,99496.78
2022-09-27T23:56:03.872Z,99497.25
2022-09-27T23:58:35.159Z,99494.88
